createdAt,value
2022-10-24T00:01:23.216Z,100521.34
2022-10-24T00:03:50.631Z,100515.63
2022-10-24T00:06:19.067Z,100511.16
2022-10-24T00:08:46.652Z,100508.38
2022-10-24T00:11:25.982Z,100502.94
2022-10-24T00:13:55.676Z,100513.56
2022-10-24T00:16:22.924Z,100499.31
2022-10-24T00:18:49.884Z,100499.31
2022-10-24T00:21:17.119Z,100493.16
2022-10-24T00:23:44.285Z,100493.16
2022-10-24T00:26:11.832Z,100501.28
2022-10-24T00:28:39.074Z,100496.97
2022-10-24T00:31:07.962Z,100493.41
2022-10-24T00:33:35.303Z,100488.34
2022-10-24T00:36:02.230Z,100487.41
2022-10-24T00:38:29.146Z,100484.03
2022-10-24T00:40:56.076Z,100487.66
2022-10-24T00:43:26.213Z,100481.50
2022-10-24T00:45:58.189Z,100479.84
2022-10-24T00:48:32.168Z,100480.63
2022-10-24T00:51:24.590Z,100479.19
2022-10-24T00:54:03.324Z,100480.72
2022-10-24T00:56:35.795Z,100464.84
2022-10-24T00:59:05.916Z,100470.72
2022-10-24T01:01:34.294Z,100477.53
2022-10-24T01:04:01.879Z,100467.94
2022-10-24T01:07:15.331Z,100464.16
2022-10-24T01:10:52.873Z,100470.25
2022-10-24T01:13:31.301Z,100465.97
2022-10-24T01:16:24.187Z,100459.91
2022-10-24T01:19:08.072Z,100461.63
2022-10-24T01:21:41.578Z,100471.56
2022-10-24T01:24:49.882Z,100463.88
2022-10-24T01:27:43.337Z,100459.75
2022-10-24T01:30:13.415Z,100456.19
2022-10-24T01:33:05.973Z,100446.25
2022-10-24T01:36:02.008Z,100441.75
2022-10-24T01:38:39.148Z,100434.56
2022-10-24T01:41:17.756Z,100437.06
2022-10-24T01:44:02.321Z,100434.41
2022-10-24T01:46:41.512Z,100430.06
2022-10-24T01:49:19.477Z,100424.06
2022-10-24T01:51:51.339Z,100422.31
2022-10-24T01:54:18.542Z,100418.09
2022-10-24T01:56:45.632Z,100415.16
2022-10-24T01:59:28.292Z,100422.31
2022-10-24T02:02:12.655Z,100414.88
2022-10-24T02:04:48.739Z,100413.44
2022-10-24T02:07:18.568Z,100411.44
2022-10-24T02:09:49.598Z,100411.44
2022-10-24T02:12:18.964Z,100401.56
2022-10-24T02:14:58.605Z,100401.38
2022-10-24T02:17:26.058Z,100405.72
2022-10-24T02:19:53.990Z,100404.75
2022-10-24T02:22:54.321Z,100405.16
2022-10-24T02:25:30.545Z,100400.03
2022-10-24T02:28:11.663Z,100398.84
2022-10-24T02:30:50.545Z,100401.91
2022-10-24T02:33:18.731Z,100396.72
2022-10-24T02:35:48.322Z,100393.88
2022-10-24T02:38:27.093Z,100396.81
2022-10-24T02:40:55.744Z,100401.31
2022-10-24T02:43:23.323Z,100396.19
2022-10-24T02:45:54.121Z,100398.22
2022-10-24T02:48:28.682Z,100396.56
2022-10-24T02:50:55.700Z,100395.63
2022-10-24T02:53:25.679Z,100392.25
2022-10-24T02:55:52.952Z,100400.50
2022-10-24T02:58:20.183Z,100397.03
2022-10-24T03:00:47.179Z,100398.16
2022-10-24T03:03:14.254Z,100391.84
2022-10-24T03:05:41.146Z,100400.38
2022-10-24T03:08:08.076Z,100397.28
2022-10-24T03:10:35.071Z,100397.28
2022-10-24T03:13:03.550Z,100397.13
2022-10-24T03:15:30.802Z,100396.50
2022-10-24T03:17:57.760Z,100404.75
2022-10-24T03:20:24.934Z,100404.03
2022-10-24T03:22:52.151Z,100408.63
2022-10-24T03:25:19.074Z,100405.94
2022-10-24T03:27:46.293Z,100407.09
2022-10-24T03:30:13.683Z,100409.56
2022-10-24T03:32:40.590Z,100400.94
2022-10-24T03:35:11.680Z,100401.63
2022-10-24T03:37:41.306Z,100407.34
2022-10-24T03:40:10.013Z,100405.69
2022-10-24T03:42:36.994Z,100410.09
2022-10-24T03:45:04.518Z,100399.56
2022-10-24T03:47:31.445Z,100413.03
2022-10-24T03:49:58.315Z,100404.03
2022-10-24T03:52:25.307Z,100408.38
2022-10-24T03:54:52.179Z,100401.53
2022-10-24T03:57:19.092Z,100398.59
2022-10-24T03:59:46.124Z,100397.22
2022-10-24T04:02:13.939Z,100394.44
2022-10-24T04:04:41.955Z,100403.34
2022-10-24T04:07:09.024Z,100401.38
2022-10-24T04:09:36.035Z,100387.03
2022-10-24T04:12:02.984Z,100394.53
2022-10-24T04:14:29.871Z,100400.66
2022-10-24T04:16:56.794Z,100397.91
2022-10-24T04:19:23.909Z,100391.84
2022-10-24T04:21:50.939Z,100400.13
2022-10-24T04:24:17.888Z,100389.06
2022-10-24T04:26:44.873Z,100395.88
2022-10-24T04:29:11.927Z,100390.66
2022-10-24T04:31:38.835Z,100392.44
2022-10-24T04:34:06.192Z,100403.84
2022-10-24T04:36:34.540Z,100388.03
2022-10-24T04:39:01.714Z,100387.75
2022-10-24T04:41:28.748Z,100398.56
2022-10-24T04:43:55.979Z,100400.28
2022-10-24T04:46:23.150Z,100388.16
2022-10-24T04:48:50.090Z,100391.03
2022-10-24T04:51:20.019Z,100385.13
2022-10-24T04:53:50.465Z,100392.56
2022-10-24T04:56:18.864Z,100387.66
2022-10-24T04:58:45.789Z,100393.88
2022-10-24T05:01:12.708Z,100386.56
2022-10-24T05:03:39.611Z,100380.56
2022-10-24T05:06:06.749Z,100387.66
2022-10-24T05:08:33.788Z,100382.38
2022-10-24T05:11:00.868Z,100391.19
2022-10-24T05:13:29.735Z,100393.09
2022-10-24T05:15:57.659Z,100384.09
2022-10-24T05:18:24.587Z,100387.66
2022-10-24T05:20:51.461Z,100389.53
2022-10-24T05:23:18.372Z,100387.34
2022-10-24T05:25:45.271Z,100395.41
2022-10-24T05:28:12.139Z,100395.78
2022-10-24T05:30:39.010Z,100395.22
2022-10-24T05:33:05.944Z,100396.44
2022-10-24T05:35:32.831Z,100389.88
2022-10-24T05:37:59.729Z,100387.00
2022-10-24T05:40:26.735Z,100387.00
2022-10-24T05:42:53.692Z,100392.38
2022-10-24T05:45:21.110Z,100379.91
2022-10-24T05:47:48.265Z,100385.06
2022-10-24T05:50:16.219Z,100382.59
2022-10-24T05:52:46.248Z,100383.38
2022-10-24T05:55:17.925Z,100386.63
2022-10-24T05:57:45.966Z,100389.31
2022-10-24T06:00:15.458Z,100383.16
2022-10-24T06:02:43.313Z,100385.94
2022-10-24T06:05:11.323Z,100386.72
2022-10-24T06:07:39.466Z,100378.00
2022-10-24T06:10:07.798Z,100392.38
2022-10-24T06:12:38.135Z,100394.19
2022-10-24T06:15:08.035Z,100384.50
2022-10-24T06:17:35.670Z,100389.88
2022-10-24T06:20:02.812Z,100392.06
2022-10-24T06:22:29.873Z,100397.91
2022-10-24T06:24:57.264Z,100399.81
2022-10-24T06:27:24.776Z,100402.56
2022-10-24T06:29:51.680Z,100404.13
2022-10-24T06:32:19.013Z,100406.81
2022-10-24T06:34:45.917Z,100412.25
2022-10-24T06:37:12.969Z,100417.66
2022-10-24T06:39:39.842Z,100422.41
2022-10-24T06:42:06.766Z,100418.59
2022-10-24T06:44:34.001Z,100410.88
2022-10-24T06:47:00.875Z,100411.22
2022-10-24T06:49:27.843Z,100419.47
2022-10-24T06:51:54.790Z,100416.31
2022-10-24T06:54:23.212Z,100414.34
2022-10-24T06:56:52.135Z,100422.16
2022-10-24T06:59:19.585Z,100427.13
2022-10-24T07:01:47.139Z,100426.66
2022-10-24T07:04:14.140Z,100430.84
2022-10-24T07:06:41.818Z,100439.19
2022-10-24T07:09:12.953Z,100437.53
2022-10-24T07:11:42.525Z,100445.03
2022-10-24T07:14:09.725Z,100448.88
2022-10-24T07:16:36.990Z,100450.94
2022-10-24T07:19:05.751Z,100471.06
2022-10-24T07:21:33.926Z,100470.09
2022-10-24T07:24:02.095Z,100472.88
2022-10-24T07:26:30.283Z,100472.34
2022-10-24T07:29:04.110Z,100471.44
2022-10-24T07:31:35.060Z,100477.00
2022-10-24T07:34:05.511Z,100479.22
2022-10-24T07:36:32.568Z,100489.94
2022-10-24T07:39:00.513Z,100488.78
2022-10-24T07:41:29.580Z,100485.75
2022-10-24T07:43:59.612Z,100491.38
2022-10-24T07:46:26.640Z,100481.50
2022-10-24T07:48:54.309Z,100492.06
2022-10-24T07:51:22.103Z,100507.28
2022-10-24T07:53:49.837Z,100491.81
2022-10-24T07:56:18.297Z,100500.75
2022-10-24T07:58:46.804Z,100495.94
2022-10-24T08:01:22.305Z,100504.00
2022-10-24T08:03:50.079Z,100503.72
2022-10-24T08:06:21.776Z,100508.56
2022-10-24T08:08:49.429Z,100527.28
2022-10-24T08:11:21.720Z,100516.53
2022-10-24T08:13:50.114Z,100513.00
2022-10-24T08:16:20.845Z,100500.81
2022-10-24T08:18:49.379Z,100520.25
2022-10-24T08:21:18.886Z,100525.44
2022-10-24T08:23:48.773Z,100522.59
2022-10-24T08:26:21.356Z,100525.28
2022-10-24T08:28:49.048Z,100527.97
2022-10-24T08:31:20.942Z,100534.97
2022-10-24T08:33:50.746Z,100533.97
2022-10-24T08:36:28.720Z,100540.03
2022-10-24T08:38:56.148Z,100540.72
2022-10-24T08:41:32.730Z,100541.28
2022-10-24T08:44:03.313Z,100543.19
2022-10-24T08:46:55.246Z,100545.06
2022-10-24T08:49:54.472Z,100550.41
2022-10-24T08:52:45.262Z,100561.16
2022-10-24T08:55:30.983Z,100557.41
2022-10-24T08:58:06.141Z,100556.25
2022-10-24T09:00:40.730Z,100552.53
2022-10-24T09:03:54.553Z,100556.09
2022-10-24T09:06:24.407Z,100573.63
2022-10-24T09:09:18.315Z,100564.63
2022-10-24T09:11:57.403Z,100565.00
2022-10-24T09:14:30.252Z,100567.69
2022-10-24T09:20:01.598Z,100579.94
2022-10-24T09:22:33.319Z,100593.22
2022-10-24T09:25:12.161Z,100580.97
2022-10-24T09:27:41.574Z,100584.06
2022-10-24T09:30:21.127Z,100607.94
2022-10-24T09:32:48.784Z,100608.81
2022-10-24T09:35:26.593Z,100614.44
2022-10-24T09:37:57.359Z,100610.19
2022-10-24T09:40:27.109Z,100612.69
2022-10-24T09:43:01.050Z,100617.50
2022-10-24T09:46:05.855Z,100641.03
2022-10-24T09:48:55.816Z,100646.00
2022-10-24T09:51:27.421Z,100646.84
2022-10-24T09:54:18.787Z,100643.28
2022-10-24T09:57:13.044Z,100646.06
2022-10-24T10:00:00.319Z,100655.91
2022-10-24T10:02:35.555Z,100658.25
2022-10-24T10:05:05.547Z,100650.84
2022-10-24T10:07:39.010Z,100672.78
2022-10-24T10:10:26.682Z,100690.03
2022-10-24T10:13:19.932Z,100668.81
2022-10-24T10:15:53.601Z,100677.28
2022-10-24T10:18:20.407Z,100678.47
2022-10-24T10:21:00.954Z,100681.59
2022-10-24T10:23:39.264Z,100689.63
2022-10-24T10:26:30.396Z,100684.34
2022-10-24T10:29:09.366Z,100684.84
2022-10-24T10:32:29.496Z,100710.00
2022-10-24T10:35:23.092Z,100689.63
2022-10-24T10:38:40.713Z,100697.69
2022-10-24T10:41:46.021Z,100704.69
2022-10-24T10:44:31.890Z,100699.13
2022-10-24T10:47:27.647Z,100702.56
2022-10-24T10:49:59.032Z,100709.31
2022-10-24T10:52:49.948Z,100718.88
2022-10-24T10:55:22.528Z,100719.75
2022-10-24T10:58:24.009Z,100731.28
2022-10-24T11:01:44.546Z,100742.81
2022-10-24T11:04:30.972Z,100746.09
2022-10-24T11:07:27.760Z,100762.91
2022-10-24T11:10:06.204Z,100737.94
2022-10-24T11:12:41.173Z,100739.84
2022-10-24T11:15:31.353Z,100741.59
2022-10-24T11:18:31.566Z,100752.75
2022-10-24T11:21:12.701Z,100758.72
2022-10-24T11:24:13.590Z,100762.19
2022-10-24T11:26:56.815Z,100751.25
2022-10-24T11:29:50.880Z,100752.22
2022-10-24T11:32:39.592Z,100766.53
2022-10-24T11:35:29.656Z,100772.16
2022-10-24T11:38:16.715Z,100767.66
2022-10-24T11:40:51.677Z,100774.16
2022-10-24T11:43:28.855Z,100781.72
2022-10-24T11:46:22.464Z,100793.69
2022-10-24T11:48:57.777Z,100791.88
2022-10-24T11:51:42.170Z,100793.69
2022-10-24T11:54:38.457Z,100792.38
2022-10-24T11:57:16.206Z,100794.91
2022-10-24T11:59:43.431Z,100801.41
2022-10-24T12:03:02.799Z,100792.75
2022-10-24T12:05:49.839Z,100797.50
2022-10-24T12:08:47.839Z,100799.25
2022-10-24T12:11:56.241Z,100800.19
2022-10-24T12:14:49.935Z,100810.84
2022-10-24T12:17:46.370Z,100797.75
2022-10-24T12:20:20.189Z,100813.63
2022-10-24T12:22:49.195Z,100806.59
2022-10-24T12:25:47.228Z,100813.38
2022-10-24T12:28:26.234Z,100817.53
2022-10-24T12:31:15.216Z,100809.22
2022-10-24T12:33:44.286Z,100811.91
2022-10-24T12:36:11.576Z,100812.84
2022-10-24T12:38:38.393Z,100822.72
2022-10-24T12:41:34.212Z,100826.00
2022-10-24T12:44:41.203Z,100819.16
2022-10-24T12:47:44.226Z,100815.75
2022-10-24T12:50:23.238Z,100818.53
2022-10-24T12:53:03.409Z,100829.19
2022-10-24T12:55:50.499Z,100831.53
2022-10-24T12:58:27.821Z,100828.25
2022-10-24T13:01:04.860Z,100841.69
2022-10-24T13:03:52.904Z,100840.19
2022-10-24T13:06:36.220Z,100847.13
2022-10-24T13:09:41.625Z,100850.16
2022-10-24T13:12:43.029Z,100847.19
2022-10-24T13:15:22.165Z,100840.22
2022-10-24T13:18:48.603Z,100844.00
2022-10-24T13:24:16.171Z,100856.69
2022-10-24T13:26:51.258Z,100856.81
2022-10-24T13:29:24.142Z,100857.16
2022-10-24T13:32:15.354Z,100846.16
2022-10-24T13:34:56.027Z,100848.41
2022-10-24T13:37:28.397Z,100846.44
2022-10-24T13:40:08.971Z,100846.25
2022-10-24T13:42:50.825Z,100843.56
2022-10-24T13:45:51.863Z,100832.59
2022-10-24T13:48:22.407Z,100844.16
2022-10-24T13:51:01.704Z,100843.03
2022-10-24T13:53:36.064Z,100851.47
2022-10-24T13:56:10.769Z,100853.34
2022-10-24T13:58:44.276Z,100871.19
2022-10-24T14:01:28.527Z,100851.19
2022-10-24T14:03:57.411Z,100857.56
2022-10-24T14:06:29.019Z,100868.47
2022-10-24T14:09:06.897Z,100854.81
2022-10-24T14:11:35.205Z,100856.00
2022-10-24T14:14:06.015Z,100853.22
2022-10-24T14:16:35.558Z,100857.56
2022-10-24T14:19:31.751Z,100851.41
2022-10-24T14:22:00.213Z,100857.31
2022-10-24T14:24:27.191Z,100860.00
2022-10-24T14:26:56.761Z,100854.97
2022-10-24T14:29:31.781Z,100856.09
2022-10-24T14:32:07.846Z,100866.81
2022-10-24T14:34:37.641Z,100868.47
2022-10-24T14:37:11.624Z,100873.03
2022-10-24T14:39:39.976Z,100872.09
2022-10-24T14:42:16.131Z,100871.38
2022-10-24T14:44:46.221Z,100872.25
2022-10-24T14:47:22.354Z,100865.88
2022-10-24T14:49:49.571Z,100872.97
2022-10-24T14:52:32.220Z,100869.31
2022-10-24T14:55:27.635Z,100871.69
2022-10-24T14:57:55.226Z,100875.38
2022-10-24T15:00:25.692Z,100879.19
2022-10-24T15:02:56.989Z,100884.31
2022-10-24T15:05:31.868Z,100876.19
2022-10-24T15:08:20.976Z,100882.63
2022-10-24T15:10:48.980Z,100890.59
2022-10-24T15:13:21.874Z,100882.72
2022-10-24T15:15:57.868Z,100891.63
2022-10-24T15:18:42.120Z,100885.66
2022-10-24T15:21:19.617Z,100891.91
2022-10-24T15:24:07.196Z,100890.09
2022-10-24T15:26:40.873Z,100890.09
2022-10-24T15:29:13.655Z,100891.63
2022-10-24T15:31:46.902Z,100896.91
2022-10-24T15:34:20.196Z,100904.97
2022-10-24T15:36:49.864Z,100900.66
2022-10-24T15:39:21.422Z,100905.16
2022-10-24T15:41:49.020Z,100906.84
2022-10-24T15:44:22.398Z,100917.75
2022-10-24T15:46:49.775Z,100917.84
2022-10-24T15:49:17.044Z,100917.03
2022-10-24T15:51:49.886Z,100910.88
2022-10-24T15:54:21.314Z,100914.69
2022-10-24T15:56:49.328Z,100919.19
2022-10-24T15:59:17.310Z,100922.03
2022-10-24T16:01:50.284Z,100926.13
2022-10-24T16:04:18.334Z,100929.03
2022-10-24T16:06:45.253Z,100924.88
2022-10-24T16:09:27.601Z,100934.94
2022-10-24T16:11:55.312Z,100934.25
2022-10-24T16:14:25.786Z,100937.16
2022-10-24T16:16:54.820Z,100935.41
2022-10-24T16:19:22.003Z,100944.25
2022-10-24T16:21:49.224Z,100939.34
2022-10-24T16:24:16.205Z,100945.78
2022-10-24T16:26:43.111Z,100952.25
2022-10-24T16:29:10.391Z,100962.38
2022-10-24T16:31:37.687Z,100956.34
2022-10-24T16:34:04.694Z,100965.53
2022-10-24T16:36:32.625Z,100957.50
2022-10-24T16:38:59.529Z,100959.59
2022-10-24T16:41:27.003Z,100959.69
2022-10-24T16:43:56.563Z,100962.78
2022-10-24T16:46:25.593Z,100967.13
2022-10-24T16:48:53.205Z,100970.88
2022-10-24T16:51:27.273Z,100972.81
2022-10-24T16:53:54.207Z,100976.50
2022-10-24T16:56:21.095Z,100982.97
2022-10-24T16:58:47.986Z,100985.63
2022-10-24T17:01:16.587Z,100984.31
2022-10-24T17:03:47.044Z,100992.19
2022-10-24T17:06:14.653Z,100987.78
2022-10-24T17:08:41.739Z,100987.94
2022-10-24T17:11:32.337Z,100999.59
2022-10-24T17:13:58.118Z,100997.09
2022-10-24T17:16:26.038Z,100992.91
2022-10-24T17:19:12.106Z,101001.94
2022-10-24T17:21:39.462Z,100996.88
2022-10-24T17:24:11.467Z,101001.50
2022-10-24T17:26:38.764Z,101007.09
2022-10-24T17:29:05.911Z,101005.41
2022-10-24T17:31:33.016Z,101012.69
2022-10-24T17:34:00.247Z,101011.88
2022-10-24T17:36:33.505Z,101014.69
2022-10-24T17:39:14.451Z,101013.03
2022-10-24T17:41:41.966Z,101015.03
2022-10-24T17:44:16.916Z,101020.72
2022-10-24T17:46:45.349Z,101014.63
2022-10-24T17:49:17.761Z,101027.34
2022-10-24T17:51:48.899Z,101030.13
2022-10-24T17:54:16.200Z,101024.25
2022-10-24T17:56:43.551Z,101030.66
2022-10-24T17:59:10.517Z,101038.00
2022-10-24T18:01:37.564Z,101035.47
2022-10-24T18:04:04.996Z,101033.72
2022-10-24T18:06:32.561Z,101032.03
2022-10-24T18:08:59.549Z,101034.84
2022-10-24T18:11:26.816Z,101031.25
2022-10-24T18:13:54.061Z,101032.22
2022-10-24T18:16:21.576Z,101030.38
2022-10-24T18:18:49.489Z,101025.09
2022-10-24T18:21:20.445Z,101038.53
2022-10-24T18:23:48.511Z,101037.56
2022-10-24T18:26:19.134Z,101045.53
2022-10-24T18:28:50.415Z,101047.22
2022-10-24T18:31:23.598Z,101051.69
2022-10-24T18:33:51.169Z,101050.56
2022-10-24T18:36:22.860Z,101050.56
2022-10-24T18:38:49.958Z,101061.13
2022-10-24T18:41:36.300Z,101064.47
2022-10-24T18:44:25.564Z,101058.00
2022-10-24T18:46:55.457Z,101057.06
2022-10-24T18:49:23.206Z,101063.22
2022-10-24T18:52:07.183Z,101062.22
2022-10-24T18:54:58.447Z,101061.41
2022-10-24T18:57:30.549Z,101063.97
2022-10-24T19:00:00.744Z,101062.94
2022-10-24T19:02:50.143Z,101061.06
2022-10-24T19:05:21.315Z,101054.16
2022-10-24T19:07:50.075Z,101053.13
2022-10-24T19:10:27.104Z,101045.03
2022-10-24T19:12:57.252Z,101046.78
2022-10-24T19:15:24.787Z,101040.56
2022-10-24T19:17:51.886Z,101049.50
2022-10-24T19:20:23.309Z,101053.94
2022-10-24T19:22:50.878Z,101050.72
2022-10-24T19:25:18.107Z,101047.13
2022-10-24T19:27:45.282Z,101056.00
2022-10-24T19:30:13.398Z,101052.47
2022-10-24T19:32:40.349Z,101051.72
2022-10-24T19:35:07.715Z,101044.69
2022-10-24T19:37:34.667Z,101050.13
2022-10-24T19:40:01.558Z,101047.56
2022-10-24T19:42:28.451Z,101048.44
2022-10-24T19:44:56.423Z,101046.75
2022-10-24T19:47:23.395Z,101048.63
2022-10-24T19:49:50.379Z,101056.63
2022-10-24T19:52:17.537Z,101060.25
2022-10-24T19:54:44.764Z,101055.16
2022-10-24T19:57:12.500Z,101049.94
2022-10-24T19:59:39.472Z,101053.69
2022-10-24T20:02:06.614Z,101051.19
2022-10-24T20:04:33.524Z,101053.91
2022-10-24T20:07:00.378Z,101064.78
2022-10-24T20:09:27.234Z,101063.16
2022-10-24T20:11:54.122Z,101064.22
2022-10-24T20:14:24.327Z,101074.19
2022-10-24T20:16:51.708Z,101077.06
2022-10-24T20:19:18.779Z,101078.06
2022-10-24T20:21:45.644Z,101079.00
2022-10-24T20:24:12.891Z,101077.38
2022-10-24T20:26:39.834Z,101081.84
2022-10-24T20:29:06.780Z,101080.13
2022-10-24T20:31:43.044Z,101082.72
2022-10-24T20:34:10.066Z,101088.13
2022-10-24T20:36:44.366Z,101093.34
2022-10-24T20:39:15.939Z,101095.25
2022-10-24T20:41:43.174Z,101098.91
2022-10-24T20:44:11.509Z,101099.78
2022-10-24T20:46:38.451Z,101111.22
2022-10-24T20:49:05.477Z,101113.97
2022-10-24T20:51:32.444Z,101103.53
2022-10-24T20:53:59.380Z,101109.66
2022-10-24T20:56:26.625Z,101112.28
2022-10-24T20:58:55.476Z,101116.56
2022-10-24T21:01:26.245Z,101112.97
2022-10-24T21:03:54.782Z,101117.56
2022-10-24T21:06:29.681Z,101118.47
2022-10-24T21:09:00.571Z,101117.56
2022-10-24T21:11:31.175Z,101118.47
2022-10-24T21:14:11.322Z,101128.25
2022-10-24T21:16:38.502Z,101129.16
2022-10-24T21:19:05.412Z,101129.09
2022-10-24T21:21:32.738Z,101138.00
2022-10-24T21:24:04.340Z,101146.81
2022-10-24T21:26:38.442Z,101143.28
2022-10-24T21:29:31.530Z,101150.31
2022-10-24T21:31:53.964Z,101145.84
2022-10-24T21:34:20.827Z,101146.72
2022-10-24T21:36:48.493Z,101146.81
2022-10-24T21:39:17.136Z,101145.91
2022-10-24T21:41:44.732Z,101149.50
2022-10-24T21:44:11.818Z,101153.03
2022-10-24T21:46:38.965Z,101160.19
2022-10-24T21:49:05.862Z,101155.81
2022-10-24T21:51:36.499Z,101161.22
2022-10-24T21:54:18.500Z,101167.47
2022-10-24T21:56:46.000Z,101171.06
2022-10-24T21:59:17.540Z,101173.88
2022-10-24T22:01:47.613Z,101168.66
2022-10-24T22:04:15.855Z,101172.25
2022-10-24T22:06:44.180Z,101176.66
2022-10-24T22:09:15.788Z,101175.97
2022-10-24T22:11:43.311Z,101187.38
2022-10-24T22:14:13.644Z,101192.00
2022-10-24T22:16:41.894Z,101190.41
2022-10-24T22:19:11.661Z,101194.81
2022-10-24T22:21:45.397Z,101193.06
2022-10-24T22:24:18.202Z,101194.88
2022-10-24T22:26:45.679Z,101210.88
2022-10-24T22:29:21.107Z,101210.13
2022-10-24T22:31:49.208Z,101203.13
2022-10-24T22:34:22.879Z,101209.38
2022-10-24T22:37:14.560Z,101206.75
2022-10-24T22:39:42.045Z,101216.53
2022-10-24T22:42:13.580Z,101214.72
2022-10-24T22:44:44.222Z,101215.69
2022-10-24T22:47:30.420Z,101215.66
2022-10-24T22:50:37.669Z,101223.66
2022-10-24T22:53:08.880Z,101214.72
2022-10-24T22:56:01.335Z,101223.66
2022-10-24T22:58:28.712Z,101219.19
2022-10-24T23:01:27.644Z,101217.44
2022-10-24T23:04:14.119Z,101229.00
2022-10-24T23:06:56.930Z,101230.88
2022-10-24T23:09:23.864Z,101227.28
2022-10-24T23:11:51.243Z,101233.50
2022-10-24T23:14:18.581Z,101232.72
2022-10-24T23:17:00.747Z,101232.72
2022-10-24T23:19:32.836Z,101241.63
2022-10-24T23:22:22.265Z,101238.84
2022-10-24T23:24:51.172Z,101245.84
2022-10-24T23:27:39.579Z,101248.25
2022-10-24T23:30:15.768Z,101247.25
2022-10-24T23:32:43.459Z,101250.78
2022-10-24T23:35:14.013Z,101252.44
2022-10-24T23:37:47.379Z,101250.53
2022-10-24T23:40:17.229Z,101254.88
2022-10-24T23:42:45.895Z,101263.69
2022-10-24T23:45:15.594Z,101262.59
2022-10-24T23:47:57.827Z,101257.25
2022-10-24T23:50:45.488Z,101264.16
2022-10-24T23:53:27.307Z,101263.22
2022-10-24T23:55:54.612Z,101255.09
2022-10-24T23:58:21.671Z,101257.72
